Hawkesbury, Canada
Current Conditions -  °F | °C
As of 1:00 PM on Monday 24 Nov 2014 (Local Time) from CYMX Reporting Station
Broken Clouds Broken Clouds  
Wind Chill: 57°   Ceiling: 7000
Heat Index: 57°   Visibility: 45mi
Dew Point: 54°   Wind: 2mph
Humidity: 88%   Direction: 130°SE
Pressure: 29.31"   Gusts: NA
Location:  45.61°N, 74.61°W
Report Text: CYMX 241800Z 13002KT 45SM FEW006 SCT050 BKN070 BKN150 14/12 A2931 RMK SF1SC3AC3AC1 SF TR SLP927 DENSITY ALT 800FT
Loading
Personal Weather Stations






























Interactive Weather Map New forecast layout! Learn more

10-Day Weather Forecast

Advertisements
Track Severe Weather on mobile